Altus, OK

4:36 AM CST on December 15, 2017 (GMT -0600)
Altus Municipal

Weather History for KAXS - December, 2012

Change the Weather History Date:

Tuesday, December 25, 2012

  Actual Average (KLTS) Record (KLTS)
Temperature  
Mean Temperature 27 °F -  
Max Temperature 35 °F 49 °F 71 °F (2016)
Min Temperature 19 °F 25 °F 17 °F (2012)
Degree Days  
Heating Degree Days 38    
Moisture  
Dew Point 18 °F    
Average Humidity 73    
Maximum Humidity 86    
Minimum Humidity 56    
Precipitation  
Precipitation 0.00 in - - ()
Sea Level Pressure  
Sea Level Pressure 30.02 in    
Wind  
Wind Speed 21 mph (North)    
Max Wind Speed 37 mph    
Max Gust Speed 44 mph    
Visibility 7 miles    
Events Snow , Thunderstorm    
Averages and records for this station are not official NWS values.
T = Trace of Precipitation, MM = Missing Value Source: NWS Daily Summary

Daily Weather History Graph

Daily Weather History Graph

Search for Another Location

Airport or City:

Trip Planner

Search our weather history database for the weather conditions in past years. The results will help you decide how hot, cold, wet, or windy it might be!

Date:

Astronomy

Dec. 25, 2012 Rise Set
Actual Time 7:42 AM CST 5:32 PM CST
Civil Twilight 7:14 AM CST 6:00 PM CST
Nautical Twilight 6:43 AM CST 6:32 PM CST
Astronomical Twilight 6:12 AM CST 7:03 PM CST
Moon 3:40 PM CST (12/25) 5:18 AM CST (12/25)
Length of Visible Light 10h 46m
Length of Day
9h 50m
Waxing Gibbous, 94% of the Moon is Illuminated
Dec 25
Waxing Gibbous
Dec 28
Full
Jan 4
Last Quarter
Jan 11
New
Jan 18
First Quarter

Hourly Weather History & Observations

Time (CST) Temp. Windchill Dew Point Humidity Pressure Visibility Wind Dir Wind Speed Gust Speed Precip Events Conditions
12:15 AM 35.6 °F 26.2 °F 21.2 °F 56% 29.82 in 10.0 mi ENE 15.0 mph 19.6 mph N/A   Clear
12:35 AM 35.6 °F 26.2 °F 21.2 °F 56% 29.82 in 10.0 mi ENE 15.0 mph 20.7 mph N/A   Clear
12:55 AM 35.6 °F 26.6 °F 21.2 °F 56% 29.82 in 10.0 mi NE 13.8 mph - N/A   Clear
1:15 AM 35.6 °F 28.6 °F 23.0 °F 60% 29.85 in 10.0 mi NE 9.2 mph - N/A   Clear
1:35 AM 35.6 °F 25.9 °F 23.0 °F 60% 29.82 in 10.0 mi NE 16.1 mph - N/A   Clear
1:55 AM 35.6 °F 26.6 °F 23.0 °F 60% 29.83 in 10.0 mi NE 13.8 mph - N/A   Clear
2:15 AM 33.8 °F 23.9 °F 23.0 °F 65% 29.84 in 10.0 mi NE 15.0 mph - N/A   Clear
2:35 AM 33.8 °F 21.9 °F 23.0 °F 65% 29.83 in 10.0 mi NE 21.9 mph - N/A   Clear
2:55 AM 33.8 °F 22.2 °F 23.0 °F 65% 29.83 in 10.0 mi NE 20.7 mph 24.2 mph N/A   Clear
3:15 AM 32.0 °F 20.8 °F 21.2 °F 64% 29.84 in 10.0 mi NE 17.3 mph 21.9 mph N/A   Clear
3:35 AM 32.0 °F 18.1 °F 21.2 °F 64% 29.83 in 10.0 mi NE 27.6 mph 34.5 mph N/A   Clear
3:55 AM 32.0 °F 19.8 °F 21.2 °F 64% 29.84 in 10.0 mi NNE 20.7 mph 29.9 mph N/A   Clear
4:15 AM 30.2 °F 18.5 °F 21.2 °F 69% 29.83 in 10.0 mi NNE 17.3 mph 31.1 mph N/A Thunderstorm Clear
4:55 AM 30.2 °F 15.9 °F 21.2 °F 69% 29.83 in 10.0 mi NNE 26.5 mph 31.1 mph N/A   Clear
5:15 AM 30.2 °F 16.8 °F 21.2 °F 69% 29.84 in 10.0 mi NNE 23.0 mph 32.2 mph N/A   Clear
5:35 AM 28.4 °F 15.8 °F 21.2 °F 74% 29.87 in 10.0 mi North 18.4 mph 26.5 mph N/A   Clear
6:15 AM 28.4 °F 12.7 °F 19.4 °F 69% 29.88 in 10.0 mi North 29.9 mph 35.7 mph N/A   Mostly Cloudy
6:35 AM 28.4 °F 12.3 °F 19.4 °F 69% 29.88 in 10.0 mi North 32.2 mph 35.7 mph N/A   Overcast
6:55 AM 28.4 °F 13.0 °F 19.4 °F 69% 29.87 in 10.0 mi North 28.8 mph 36.8 mph N/A   Overcast
7:15 AM 28.4 °F 12.3 °F 19.4 °F 69% 29.88 in 5.0 mi North 32.2 mph 40.3 mph N/A   Haze
7:35 AM 26.6 °F 10.3 °F 17.6 °F 69% 29.87 in 7.0 mi North 29.9 mph 40.3 mph N/A   Overcast
7:55 AM 26.6 °F 10.0 °F 17.6 °F 69% 29.91 in 7.0 mi North 31.1 mph 40.3 mph N/A   Overcast
8:15 AM 26.6 °F 8.9 °F 17.6 °F 69% 29.90 in 10.0 mi North 36.8 mph 42.6 mph N/A   Overcast
8:35 AM 26.6 °F 9.3 °F 17.6 °F 69% 29.91 in 10.0 mi North 34.5 mph 40.3 mph N/A   Overcast
8:55 AM 26.6 °F 9.3 °F 19.4 °F 74% 29.92 in 0.8 mi North 34.5 mph 41.4 mph N/A Snow Light Snow
9:15 AM 24.8 °F 9.3 °F 19.4 °F 80% 29.94 in 0.8 mi North 24.2 mph 38.0 mph N/A Snow Light Snow
12:15 PM 23.0 °F 6.6 °F 19.4 °F 86% 30.06 in 0.5 mi North 25.3 mph 31.1 mph N/A Snow Snow
12:35 PM 23.0 °F 7.2 °F 19.4 °F 86% 30.06 in 0.5 mi North 23.0 mph 33.4 mph N/A Snow Snow
12:55 PM 23.0 °F 6.3 °F 19.4 °F 86% 30.06 in 0.5 mi North 26.5 mph 33.4 mph N/A Snow Light Snow
1:35 PM 23.0 °F 6.3 °F 19.4 °F 86% 30.06 in 0.2 mi North 26.5 mph 41.4 mph N/A Snow Snow
1:55 PM 23.0 °F 6.3 °F 19.4 °F 86% 30.06 in 0.5 mi North 26.5 mph 31.1 mph N/A Snow Light Snow
2:15 PM 23.0 °F 4.6 °F 19.4 °F 86% 30.06 in 0.8 mi North 33.4 mph 40.3 mph N/A Snow Light Snow
2:35 PM 23.0 °F 6.6 °F 19.4 °F 86% 30.06 in 0.8 mi North 25.3 mph 40.3 mph N/A Snow Light Snow
2:55 PM 23.0 °F 4.1 °F 19.4 °F 86% 30.06 in 0.8 mi North 35.7 mph 41.4 mph N/A Snow Light Snow
3:15 PM 23.0 °F 4.9 °F 19.4 °F 86% 30.07 in 0.5 mi North 32.2 mph 43.7 mph N/A Snow Light Snow
3:35 PM 23.0 °F 6.3 °F 19.4 °F 86% 30.08 in 0.5 mi North 26.5 mph 40.3 mph N/A Snow Light Snow
3:55 PM 23.0 °F 6.0 °F 19.4 °F 86% 30.08 in 0.8 mi North 27.6 mph 40.3 mph N/A Snow Light Snow
4:15 PM 23.0 °F 5.7 °F 19.4 °F 86% 30.09 in 1.2 mi North 28.8 mph 33.4 mph N/A Snow Light Snow
4:55 PM 24.8 °F 9.0 °F 17.6 °F 74% 30.12 in 5.0 mi North 25.3 mph 29.9 mph N/A   Haze
5:15 PM 24.8 °F 10.7 °F 19.4 °F 80% 30.14 in 7.0 mi North 19.6 mph 27.6 mph N/A   Scattered Clouds
5:35 PM 24.8 °F 9.3 °F 17.6 °F 74% 30.15 in 10.0 mi North 24.2 mph 28.8 mph N/A   Mostly Cloudy
5:55 PM 24.8 °F 10.7 °F 17.6 °F 74% 30.16 in 10.0 mi North 19.6 mph 25.3 mph N/A   Mostly Cloudy
6:15 PM 24.8 °F 10.3 °F 17.6 °F 74% 30.18 in 10.0 mi North 20.7 mph 26.5 mph N/A   Mostly Cloudy
6:35 PM 23.0 °F 8.0 °F 17.6 °F 80% 30.18 in 10.0 mi North 20.7 mph - N/A   Scattered Clouds
6:55 PM 23.0 °F 8.3 °F 15.8 °F 74% 30.18 in 10.0 mi North 19.6 mph - N/A   Clear
7:15 PM 23.0 °F 9.2 °F 15.8 °F 74% 30.19 in 10.0 mi North 17.3 mph - N/A   Clear
7:35 PM 23.0 °F 9.6 °F 15.8 °F 74% 30.20 in 10.0 mi North 16.1 mph - N/A   Clear
7:55 PM 23.0 °F 10.6 °F 14.0 °F 68% 30.21 in 10.0 mi NNW 13.8 mph 17.3 mph N/A   Clear
8:15 PM 23.0 °F 10.1 °F 14.0 °F 68% 30.22 in 10.0 mi NNW 15.0 mph - N/A   Clear
8:35 PM 21.2 °F 6.4 °F 14.0 °F 74% 30.24 in 10.0 mi NNW 18.4 mph 24.2 mph N/A   Scattered Clouds
8:55 PM 23.0 °F 8.3 °F 14.0 °F 68% 30.24 in 10.0 mi NNW 19.6 mph - N/A   Mostly Cloudy
9:15 PM 23.0 °F 7.2 °F 14.0 °F 68% 30.24 in 10.0 mi NNW 23.0 mph 29.9 mph N/A   Mostly Cloudy
9:35 PM 21.2 °F 5.2 °F 14.0 °F 74% 30.26 in 10.0 mi NNW 21.9 mph 28.8 mph N/A   Mostly Cloudy
10:15 PM 21.2 °F 6.4 °F 12.2 °F 68% 30.27 in 10.0 mi NNW 18.4 mph - N/A   Clear
10:35 PM 19.4 °F 3.6 °F 12.2 °F 74% 30.27 in 10.0 mi North 19.6 mph - N/A   Clear
10:55 PM 19.4 °F 5.5 °F 12.2 °F 74% 30.28 in 10.0 mi NNW 15.0 mph 20.7 mph N/A   Clear
11:15 PM 19.4 °F 6.6 °F 12.2 °F 74% 30.30 in 10.0 mi NNW 12.7 mph - N/A   Scattered Clouds
11:35 PM 19.4 °F 5.0 °F 12.2 °F 74% 30.30 in 10.0 mi NNW 16.1 mph - N/A   Mostly Cloudy